sensor_id;sensor_type;location;lat;lon;timestamp;P1;durP1;ratioP1;P2;durP2;ratioP2
10440;SDS011;5268;49.346;9.522;2023-06-19T03:07:49;6.45;;;5.50;;
10440;SDS011;5268;49.346;9.522;2023-06-19T03:12:51;5.28;;;4.65;;
10440;SDS011;5268;49.346;9.522;2023-06-19T03:17:53;4.95;;;4.55;;
10440;SDS011;5268;49.346;9.522;2023-06-19T03:22:57;5.65;;;4.53;;
10440;SDS011;5268;49.346;9.522;2023-06-19T03:27:59;6.63;;;4.82;;
10440;SDS011;5268;49.346;9.522;2023-06-19T03:33:01;4.78;;;4.38;;
10440;SDS011;5268;49.346;9.522;2023-06-19T03:38:04;4.75;;;4.30;;
10440;SDS011;5268;49.346;9.522;2023-06-19T03:43:06;5.97;;;4.70;;
10440;SDS011;5268;49.346;9.522;2023-06-19T03:48:08;5.13;;;4.63;;
10440;SDS011;5268;49.346;9.522;2023-06-19T03:53:11;5.40;;;4.60;;
10440;SDS011;5268;49.346;9.522;2023-06-19T03:58:13;4.80;;;4.40;;
10440;SDS011;5268;49.346;9.522;2023-06-19T04:03:15;4.88;;;4.47;;
10440;SDS011;5268;49.346;9.522;2023-06-19T04:08:18;5.95;;;4.50;;
10440;SDS011;5268;49.346;9.522;2023-06-19T04:13:21;4.65;;;4.25;;
10440;SDS011;5268;49.346;9.522;2023-06-19T04:18:22;4.88;;;4.35;;
10440;SDS011;5268;49.346;9.522;2023-06-19T04:23:26;5.00;;;4.13;;
10440;SDS011;5268;49.346;9.522;2023-06-19T04:28:28;4.43;;;3.95;;
10440;SDS011;5268;49.346;9.522;2023-06-19T04:33:30;4.72;;;3.83;;
10440;SDS011;5268;49.346;9.522;2023-06-19T04:38:33;5.43;;;3.90;;
10440;SDS011;5268;49.346;9.522;2023-06-19T04:43:35;4.18;;;3.65;;
10440;SDS011;5268;49.346;9.522;2023-06-19T04:48:37;4.72;;;3.80;;
10440;SDS011;5268;49.346;9.522;2023-06-19T04:53:41;4.38;;;3.47;;
10440;SDS011;5268;49.346;9.522;2023-06-19T04:58:43;3.97;;;3.20;;
10440;SDS011;5268;49.346;9.522;2023-06-19T05:03:47;3.92;;;3.58;;
10440;SDS011;5268;49.346;9.522;2023-06-19T05:08:50;3.05;;;2.83;;
10440;SDS011;5268;49.346;9.522;2023-06-19T05:13:53;3.30;;;3.00;;
10440;SDS011;5268;49.346;9.522;2023-06-19T05:18:55;3.28;;;2.72;;
10440;SDS011;5268;49.346;9.522;2023-06-19T05:23:58;3.28;;;2.97;;
10440;SDS011;5268;49.346;9.522;2023-06-19T05:29:00;3.30;;;3.00;;
10440;SDS011;5268;49.346;9.522;2023-06-19T05:34:02;3.20;;;2.90;;
10440;SDS011;5268;49.346;9.522;2023-06-19T05:39:06;2.90;;;2.60;;
10440;SDS011;5268;49.346;9.522;2023-06-19T05:44:07;3.33;;;3.00;;
10440;SDS011;5268;49.346;9.522;2023-06-19T05:49:09;4.30;;;2.60;;
10440;SDS011;5268;49.346;9.522;2023-06-19T05:54:13;3.25;;;2.88;;
10440;SDS011;5268;49.346;9.522;2023-06-19T05:59:15;2.88;;;2.67;;
10440;SDS011;5268;49.346;9.522;2023-06-19T06:04:17;2.70;;;2.50;;
10440;SDS011;5268;49.346;9.522;2023-06-19T06:09:23;3.03;;;2.72;;
10440;SDS011;5268;49.346;9.522;2023-06-19T06:14:25;4.50;;;2.53;;
10440;SDS011;5268;49.346;9.522;2023-06-19T06:19:27;3.10;;;2.80;;
10440;SDS011;5268;49.346;9.522;2023-06-19T06:24:30;2.70;;;2.50;;
10440;SDS011;5268;49.346;9.522;2023-06-19T06:29:32;4.43;;;2.90;;
10440;SDS011;5268;49.346;9.522;2023-06-19T06:34:34;6.10;;;2.90;;
10440;SDS011;5268;49.346;9.522;2023-06-19T06:39:37;3.65;;;2.63;;
10440;SDS011;5268;49.346;9.522;2023-06-19T06:44:39;3.20;;;2.90;;
10440;SDS011;5268;49.346;9.522;2023-06-19T06:49:41;3.40;;;3.10;;
10440;SDS011;5268;49.346;9.522;2023-06-19T06:54:45;3.83;;;3.30;;
10440;SDS011;5268;49.346;9.522;2023-06-19T06:59:47;3.17;;;2.88;;
10440;SDS011;5268;49.346;9.522;2023-06-19T07:04:49;3.13;;;2.85;;
10440;SDS011;5268;49.346;9.522;2023-06-19T07:09:53;3.22;;;2.92;;
10440;SDS011;5268;49.346;9.522;2023-06-19T07:14:55;3.83;;;3.10;;
10440;SDS011;5268;49.346;9.522;2023-06-19T07:19:57;3.78;;;3.10;;
10440;SDS011;5268;49.346;9.522;2023-06-19T07:25:01;3.22;;;2.97;;
10440;SDS011;5268;49.346;9.522;2023-06-19T07:30:04;5.13;;;3.08;;
10440;SDS011;5268;49.346;9.522;2023-06-19T07:35:07;3.33;;;3.03;;
10440;SDS011;5268;49.346;9.522;2023-06-19T07:40:12;3.30;;;3.00;;
10440;SDS011;5268;49.346;9.522;2023-06-19T07:45:14;4.70;;;3.30;;
10440;SDS011;5268;49.346;9.522;2023-06-19T07:50:17;9.63;;;3.53;;
10440;SDS011;5268;49.346;9.522;2023-06-19T07:55:20;8.63;;;3.50;;
10440;SDS011;5268;49.346;9.522;2023-06-19T08:00:22;8.55;;;3.45;;
10440;SDS011;5268;49.346;9.522;2023-06-19T08:05:24;9.13;;;3.55;;
10440;SDS011;5268;49.346;9.522;2023-06-19T08:10:27;10.15;;;3.63;;
10440;SDS011;5268;49.346;9.522;2023-06-19T08:15:29;4.40;;;3.50;;
10440;SDS011;5268;49.346;9.522;2023-06-19T08:20:31;3.70;;;3.15;;
10440;SDS011;5268;49.346;9.522;2023-06-19T08:25:38;3.40;;;3.10;;
10440;SDS011;5268;49.346;9.522;2023-06-19T08:30:40;5.10;;;3.15;;
10440;SDS011;5268;49.346;9.522;2023-06-19T08:35:42;6.07;;;3.50;;
10440;SDS011;5268;49.346;9.522;2023-06-19T08:40:45;4.28;;;3.63;;
10440;SDS011;5268;49.346;9.522;2023-06-19T08:45:52;3.78;;;3.47;;
10440;SDS011;5268;49.346;9.522;2023-06-19T08:51:02;4.40;;;3.42;;
10440;SDS011;5268;49.346;9.522;2023-06-19T08:56:06;3.65;;;3.33;;
10440;SDS011;5268;49.346;9.522;2023-06-19T09:01:08;3.88;;;3.47;;
10440;SDS011;5268;49.346;9.522;2023-06-19T09:06:10;8.30;;;3.60;;
10440;SDS011;5268;49.346;9.522;2023-06-19T09:11:13;7.82;;;4.28;;
10440;SDS011;5268;49.346;9.522;2023-06-19T09:16:20;6.47;;;3.70;;
10440;SDS011;5268;49.346;9.522;2023-06-19T09:21:24;4.20;;;3.88;;
10440;SDS011;5268;49.346;9.522;2023-06-19T09:26:30;4.13;;;3.83;;
10440;SDS011;5268;49.346;9.522;2023-06-19T09:31:32;3.95;;;3.30;;
10440;SDS011;5268;49.346;9.522;2023-06-19T09:36:34;8.35;;;4.07;;
10440;SDS011;5268;49.346;9.522;2023-06-19T09:41:38;4.20;;;3.80;;
10440;SDS011;5268;49.346;9.522;2023-06-19T09:46:42;4.50;;;3.55;;
10440;SDS011;5268;49.346;9.522;2023-06-19T09:51:47;4.32;;;3.70;;
10440;SDS011;5268;49.346;9.522;2023-06-19T09:56:52;5.70;;;4.13;;
10440;SDS011;5268;49.346;9.522;2023-06-19T10:01:58;3.92;;;3.50;;
10440;SDS011;5268;49.346;9.522;2023-06-19T10:07:00;4.40;;;3.78;;
10440;SDS011;5268;49.346;9.522;2023-06-19T10:12:04;4.00;;;3.70;;
10440;SDS011;5268;49.346;9.522;2023-06-19T10:17:16;4.00;;;3.70;;
10440;SDS011;5268;49.346;9.522;2023-06-19T10:22:21;4.70;;;3.80;;
10440;SDS011;5268;49.346;9.522;2023-06-19T10:27:25;5.40;;;3.88;;
10440;SDS011;5268;49.346;9.522;2023-06-19T10:32:27;3.90;;;3.60;;
10440;SDS011;5268;49.346;9.522;2023-06-19T10:37:31;4.57;;;3.90;;
10440;SDS011;5268;49.346;9.522;2023-06-19T10:42:35;4.10;;;3.80;;
10440;SDS011;5268;49.346;9.522;2023-06-19T10:47:38;4.22;;;3.83;;
10440;SDS011;5268;49.346;9.522;2023-06-19T10:52:41;4.20;;;3.90;;
10440;SDS011;5268;49.346;9.522;2023-06-19T10:57:45;5.43;;;4.03;;
10440;SDS011;5268;49.346;9.522;2023-06-19T11:02:48;4.43;;;4.13;;
10440;SDS011;5268;49.346;9.522;2023-06-19T11:07:51;4.65;;;4.25;;
10440;SDS011;5268;49.346;9.522;2023-06-19T11:12:56;4.43;;;4.13;;
10440;SDS011;5268;49.346;9.522;2023-06-19T11:18:00;4.88;;;4.45;;
10440;SDS011;5268;49.346;9.522;2023-06-19T11:23:02;4.70;;;4.30;;
10440;SDS011;5268;49.346;9.522;2023-06-19T11:28:10;4.40;;;4.00;;
10440;SDS011;5268;49.346;9.522;2023-06-19T11:33:17;4.70;;;4.30;;
10440;SDS011;5268;49.346;9.522;2023-06-19T11:38:23;4.50;;;4.20;;
10440;SDS011;5268;49.346;9.522;2023-06-19T11:43:28;4.53;;;4.07;;
10440;SDS011;5268;49.346;9.522;2023-06-19T11:48:31;4.65;;;4.25;;
10440;SDS011;5268;49.346;9.522;2023-06-19T11:53:33;4.53;;;4.13;;
10440;SDS011;5268;49.346;9.522;2023-06-19T11:58:36;4.28;;;3.88;;
10440;SDS011;5268;49.346;9.522;2023-06-19T12:03:38;4.30;;;3.90;;
10440;SDS011;5268;49.346;9.522;2023-06-19T12:08:40;5.03;;;4.25;;
10440;SDS011;5268;49.346;9.522;2023-06-19T12:13:44;4.43;;;4.13;;
10440;SDS011;5268;49.346;9.522;2023-06-19T12:18:46;4.38;;;3.95;;
10440;SDS011;5268;49.346;9.522;2023-06-19T12:23:47;4.22;;;3.92;;
10440;SDS011;5268;49.346;9.522;2023-06-19T12:28:51;4.40;;;4.10;;
10440;SDS011;5268;49.346;9.522;2023-06-19T12:33:53;8.07;;;4.38;;
10440;SDS011;5268;49.346;9.522;2023-06-19T12:38:55;3.88;;;3.58;;
10440;SDS011;5268;49.346;9.522;2023-06-19T12:43:58;4.00;;;3.70;;
10440;SDS011;5268;49.346;9.522;2023-06-19T12:49:00;4.07;;;3.67;;
10440;SDS011;5268;49.346;9.522;2023-06-19T12:54:03;4.20;;;3.80;;
10440;SDS011;5268;49.346;9.522;2023-06-19T12:59:06;4.45;;;4.05;;
10440;SDS011;5268;49.346;9.522;2023-06-19T13:04:08;7.43;;;4.55;;
10440;SDS011;5268;49.346;9.522;2023-06-19T13:09:10;4.55;;;3.47;;
10440;SDS011;5268;49.346;9.522;2023-06-19T13:14:14;3.53;;;3.22;;
10440;SDS011;5268;49.346;9.522;2023-06-19T13:19:16;4.60;;;3.28;;
10440;SDS011;5268;49.346;9.522;2023-06-19T13:24:18;4.20;;;3.90;;
10440;SDS011;5268;49.346;9.522;2023-06-19T13:29:21;8.18;;;3.13;;
10440;SDS011;5268;49.346;9.522;2023-06-19T13:34:23;3.78;;;3.42;;
10440;SDS011;5268;49.346;9.522;2023-06-19T13:39:25;4.13;;;3.72;;
10440;SDS011;5268;49.346;9.522;2023-06-19T13:44:29;3.50;;;3.20;;
10440;SDS011;5268;49.346;9.522;2023-06-19T13:49:31;3.90;;;3.60;;
10440;SDS011;5268;49.346;9.522;2023-06-19T13:54:33;3.40;;;3.17;;
10440;SDS011;5268;49.346;9.522;2023-06-19T13:59:36;3.70;;;3.40;;
10440;SDS011;5268;49.346;9.522;2023-06-19T14:04:38;4.07;;;3.53;;
10440;SDS011;5268;49.346;9.522;2023-06-19T14:09:40;3.95;;;3.65;;
10440;SDS011;5268;49.346;9.522;2023-06-19T14:14:43;4.30;;;3.90;;
10440;SDS011;5268;49.346;9.522;2023-06-19T14:19:45;3.80;;;3.50;;
10440;SDS011;5268;49.346;9.522;2023-06-19T14:24:47;3.55;;;3.30;;
10440;SDS011;5268;49.346;9.522;2023-06-19T14:29:51;4.35;;;3.35;;
10440;SDS011;5268;49.346;9.522;2023-06-19T14:34:54;4.25;;;3.90;;
10440;SDS011;5268;49.346;9.522;2023-06-19T14:39:56;4.25;;;3.85;;
10440;SDS011;5268;49.346;9.522;2023-06-19T14:44:59;4.35;;;3.85;;
10440;SDS011;5268;49.346;9.522;2023-06-19T14:50:01;4.28;;;3.88;;
10440;SDS011;5268;49.346;9.522;2023-06-19T14:55:04;4.13;;;3.80;;
10440;SDS011;5268;49.346;9.522;2023-06-19T15:00:09;3.67;;;3.38;;
10440;SDS011;5268;49.346;9.522;2023-06-19T15:05:12;4.13;;;3.72;;
10440;SDS011;5268;49.346;9.522;2023-06-19T15:10:13;4.72;;;4.07;;
10440;SDS011;5268;49.346;9.522;2023-06-19T15:15:17;4.10;;;3.80;;
10440;SDS011;5268;49.346;9.522;2023-06-19T15:20:19;3.80;;;3.50;;
10440;SDS011;5268;49.346;9.522;2023-06-19T15:25:21;3.72;;;3.40;;
10440;SDS011;5268;49.346;9.522;2023-06-19T15:30:24;3.85;;;3.55;;
10440;SDS011;5268;49.346;9.522;2023-06-19T15:35:28;4.25;;;3.85;;
10440;SDS011;5268;49.346;9.522;2023-06-19T15:40:30;3.95;;;3.55;;
10440;SDS011;5268;49.346;9.522;2023-06-19T15:45:33;4.95;;;3.75;;
10440;SDS011;5268;49.346;9.522;2023-06-19T15:50:35;4.10;;;3.53;;
10440;SDS011;5268;49.346;9.522;2023-06-19T15:55:37;3.60;;;3.30;;
10440;SDS011;5268;49.346;9.522;2023-06-19T16:00:43;3.88;;;3.50;;
10440;SDS011;5268;49.346;9.522;2023-06-19T16:05:48;3.60;;;3.30;;
10440;SDS011;5268;49.346;9.522;2023-06-19T16:10:52;3.85;;;3.55;;
10440;SDS011;5268;49.346;9.522;2023-06-19T16:15:55;3.80;;;3.50;;
10440;SDS011;5268;49.346;9.522;2023-06-19T16:20:57;3.70;;;3.40;;
10440;SDS011;5268;49.346;9.522;2023-06-19T16:25:59;4.30;;;3.90;;
10440;SDS011;5268;49.346;9.522;2023-06-19T16:31:02;3.58;;;3.28;;
10440;SDS011;5268;49.346;9.522;2023-06-19T16:36:05;4.28;;;3.35;;
10440;SDS011;5268;49.346;9.522;2023-06-19T16:41:07;4.03;;;3.72;;
10440;SDS011;5268;49.346;9.522;2023-06-19T16:46:11;3.75;;;3.45;;
10440;SDS011;5268;49.346;9.522;2023-06-19T16:51:13;5.53;;;3.80;;
10440;SDS011;5268;49.346;9.522;2023-06-19T16:56:14;5.43;;;3.90;;
10440;SDS011;5268;49.346;9.522;2023-06-19T17:01:18;12.77;;;8.48;;
10440;SDS011;5268;49.346;9.522;2023-06-19T17:06:20;4.28;;;3.88;;
10440;SDS011;5268;49.346;9.522;2023-06-19T17:11:22;4.13;;;3.72;;
10440;SDS011;5268;49.346;9.522;2023-06-19T17:16:28;3.47;;;3.20;;
10440;SDS011;5268;49.346;9.522;2023-06-19T17:21:29;4.40;;;3.50;;
10440;SDS011;5268;49.346;9.522;2023-06-19T17:26:31;3.90;;;3.55;;
10440;SDS011;5268;49.346;9.522;2023-06-19T17:31:35;3.70;;;3.40;;
10440;SDS011;5268;49.346;9.522;2023-06-19T17:36:37;4.15;;;3.75;;
10440;SDS011;5268;49.346;9.522;2023-06-19T17:41:39;3.97;;;3.67;;
10440;SDS011;5268;49.346;9.522;2023-06-19T17:46:44;4.30;;;3.90;;
10440;SDS011;5268;49.346;9.522;2023-06-19T17:51:46;4.28;;;3.88;;
10440;SDS011;5268;49.346;9.522;2023-06-19T17:56:48;3.80;;;3.50;;
10440;SDS011;5268;49.346;9.522;2023-06-19T18:01:52;4.10;;;3.70;;
10440;SDS011;5268;49.346;9.522;2023-06-19T18:06:54;4.20;;;3.90;;
10440;SDS011;5268;49.346;9.522;2023-06-19T18:11:56;4.40;;;3.58;;
10440;SDS011;5268;49.346;9.522;2023-06-19T18:16:59;4.20;;;3.90;;
10440;SDS011;5268;49.346;9.522;2023-06-19T18:22:03;5.32;;;4.82;;
10440;SDS011;5268;49.346;9.522;2023-06-19T18:27:06;5.32;;;4.78;;
10440;SDS011;5268;49.346;9.522;2023-06-19T18:32:09;6.22;;;4.60;;
10440;SDS011;5268;49.346;9.522;2023-06-19T18:37:11;6.72;;;4.43;;
10440;SDS011;5268;49.346;9.522;2023-06-19T18:42:13;5.93;;;4.85;;
10440;SDS011;5268;49.346;9.522;2023-06-19T18:47:16;5.78;;;5.18;;
10440;SDS011;5268;49.346;9.522;2023-06-19T18:52:18;6.30;;;4.75;;
10440;SDS011;5268;49.346;9.522;2023-06-19T18:57:20;5.57;;;5.05;;
10440;SDS011;5268;49.346;9.522;2023-06-19T19:02:29;6.70;;;5.30;;
10440;SDS011;5268;49.346;9.522;2023-06-19T19:07:31;5.00;;;4.50;;
10440;SDS011;5268;49.346;9.522;2023-06-19T19:12:32;5.90;;;4.50;;
10440;SDS011;5268;49.346;9.522;2023-06-19T19:17:36;7.10;;;4.60;;
10440;SDS011;5268;49.346;9.522;2023-06-19T19:22:38;5.85;;;5.20;;
10440;SDS011;5268;49.346;9.522;2023-06-19T19:27:40;5.30;;;4.65;;
10440;SDS011;5268;49.346;9.522;2023-06-19T19:32:44;5.53;;;5.00;;
10440;SDS011;5268;49.346;9.522;2023-06-19T19:37:46;5.50;;;5.00;;
10440;SDS011;5268;49.346;9.522;2023-06-19T19:42:48;5.30;;;4.80;;
10440;SDS011;5268;49.346;9.522;2023-06-19T19:47:51;5.50;;;5.00;;
10440;SDS011;5268;49.346;9.522;2023-06-19T19:52:53;6.63;;;5.00;;
10440;SDS011;5268;49.346;9.522;2023-06-19T19:57:55;5.63;;;4.95;;
10440;SDS011;5268;49.346;9.522;2023-06-19T20:03:02;6.28;;;5.35;;
10440;SDS011;5268;49.346;9.522;2023-06-19T20:08:04;5.68;;;5.13;;
10440;SDS011;5268;49.346;9.522;2023-06-19T20:13:06;7.90;;;6.78;;
10440;SDS011;5268;49.346;9.522;2023-06-19T20:18:09;6.30;;;5.30;;
10440;SDS011;5268;49.346;9.522;2023-06-19T20:23:11;6.05;;;5.05;;
10440;SDS011;5268;49.346;9.522;2023-06-19T20:28:13;7.47;;;5.95;;
10440;SDS011;5268;49.346;9.522;2023-06-19T20:33:16;7.30;;;5.45;;
10440;SDS011;5268;49.346;9.522;2023-06-19T20:38:18;7.10;;;4.82;;
10440;SDS011;5268;49.346;9.522;2023-06-19T20:43:20;6.05;;;5.45;;
10440;SDS011;5268;49.346;9.522;2023-06-19T20:48:24;5.75;;;5.25;;
10440;SDS011;5268;49.346;9.522;2023-06-19T20:53:26;5.80;;;5.20;;
10440;SDS011;5268;49.346;9.522;2023-06-19T20:58:28;6.22;;;5.28;;
10440;SDS011;5268;49.346;9.522;2023-06-19T21:03:34;6.03;;;5.40;;
10440;SDS011;5268;49.346;9.522;2023-06-19T21:08:36;5.22;;;4.82;;
10440;SDS011;5268;49.346;9.522;2023-06-19T21:13:38;5.07;;;4.63;;
10440;SDS011;5268;49.346;9.522;2023-06-19T21:18:41;5.10;;;4.50;;
10440;SDS011;5268;49.346;9.522;2023-06-19T21:23:43;6.20;;;5.28;;
10440;SDS011;5268;49.346;9.522;2023-06-19T21:28:45;6.07;;;5.50;;
10440;SDS011;5268;49.346;9.522;2023-06-19T21:33:48;5.70;;;5.20;;
10440;SDS011;5268;49.346;9.522;2023-06-19T21:38:51;5.75;;;5.25;;
10440;SDS011;5268;49.346;9.522;2023-06-19T21:43:52;7.53;;;6.07;;
10440;SDS011;5268;49.346;9.522;2023-06-19T21:48:56;6.10;;;5.50;;
10440;SDS011;5268;49.346;9.522;2023-06-19T21:53:58;6.28;;;5.68;;
